Vanzil'- Kynak, Russia
Current Conditions -  °F | °C
As of 5:00 PM on Monday 20 Oct 2014 (Local Time) from USNN Reporting Station
Overcast Overcast  
Wind Chill: 15°   Ceiling: 1200
Heat Index: 23°   Visibility: 6mi
Dew Point: 18°   Wind: 7mph
Humidity: 80%   Direction: 100°E
Pressure: 29.47"   Gusts: 13mph
Location:  60.35°N, 84.08°E
Report Text: USNN 201000Z 10003G06MPS 9000 OVC012 M05/M08 Q0998 NOSIG RMKQFE744 03411060
Loading
Personal Weather Stations






























Interactive Weather Map
Tropical Storm Tracking
New forecast layout! Learn more

10-Day Weather Forecast

Advertisements
Track Severe Weather on mobile